N7NKE Weather Reports


time (UTC)temp
C
wind
direction
speed
KPH
gust
KPH
rain 1hr
cm
rain 24hr
cm
rain mn
cm
humidity
%
barometer
mb
20210723164005 17 340 4.8 19.3 0.00 0.00 0.00 60 1024.5
20210723163505 17 357 4.8 14.5 0.00 0.00 0.00 60 1024.5
20210723163005 17 7 1.6 4.8 0.00 0.00 0.00 63 1024.5
20210723162504 17 337 4.8 16.1 0.00 0.00 0.00 63 1024.5
20210723162005 16 355 4.8 9.7 0.00 0.00 0.00 63 1024.5
20210723161504 16 338 8.0 12.9 0.00 0.00 0.00 65 1024.4
20210723161005 16 345 3.2 9.7 0.00 0.00 0.00 67 1024.5
20210723160504 16 334 4.8 12.9 0.00 0.00 0.00 67 1024.5
20210723160004 16 348 4.8 9.7 0.00 0.00 0.00 68 1024.5
20210723155504 15 339 3.2 4.8 0.00 0.00 0.00 69 1024.5
20210723155005 15 358 4.8 8.0 0.00 0.00 0.00 69 1024.6
20210723154504 15 2 4.8 9.7 0.00 0.00 0.00 70 1024.5
20210723154005 15 352 4.8 12.9 0.00 0.00 0.00 69 1024.6
20210723153504 15 335 4.8 9.7 0.00 0.00 0.00 69 1024.6
20210723153005 15 355 8.0 16.1 0.00 0.00 0.00 69 1024.6
20210723152504 15 353 4.8 14.5 0.00 0.00 0.00 69 1024.6
20210723152005 15 347 6.4 12.9 0.00 0.00 0.00 71 1024.6
20210723151504 14 2 4.8 12.9 0.00 0.00 0.00 71 1024.7
20210723151005 13 347 4.8 12.9 0.00 0.00 0.00 74 1024.7
20210723150504 13 22 4.8 8.0 0.00 0.00 0.00 76 1024.6
20210723150005 13 350 3.2 9.7 0.00 0.00 0.00 78 1024.6
20210723145506 12 3 3.2 4.8 0.00 0.00 0.00 81 1024.5
20210723145005 12 18 1.6 3.2 0.00 0.00 0.00 82 1024.6
20210723144504 12 9 0.0 3.2 0.00 0.00 0.00 82 1024.6
20210723144005 12 9 1.6 3.2 0.00 0.00 0.00 82 1024.5
20210723143504 12 114 1.6 3.2 0.00 0.00 0.00 82 1024.5
20210723143005 11 146 0.0 1.6 0.00 0.00 0.00 82 1024.5
20210723142504 11 145 1.6 3.2 0.00 0.00 0.00 82 1024.4
20210723142005 11 120 0.0 1.6 0.00 0.00 0.00 84 1024.4
20210723141504 11 120 0.0 3.2 0.00 0.00 0.00 84 1024.4
20210723141004 11 126 1.6 4.8 0.00 0.00 0.00 84 1024.3
20210723140505 11 101 3.2 4.8 0.00 0.00 0.00 85 1024.3
20210723140005 11 166 1.6 4.8 0.00 0.00 0.00 85 1024.3
20210723135504 11 166 0.0 4.8 0.00 0.00 0.00 85 1024.3
20210723135005 11 286 1.6 4.8 0.00 0.00 0.00 85 1024.3
20210723134504 10 293 3.2 8.0 0.00 0.00 0.00 85 1024.3
20210723134004 10 18 3.2 4.8 0.00 0.00 0.00 84 1024.2
20210723133505 10 136 0.0 4.8 0.00 0.00 0.00 85 1024.2
20210723133005 10 134 3.2 8.0 0.00 0.00 0.00 85 1024.2
20210723132504 10 156 4.8 8.0 0.00 0.00 0.00 86 1024.1
20210723132006 10 148 1.6 4.8 0.00 0.00 0.00 86 1024.1
20210723131504 10 163 1.6 4.8 0.00 0.00 0.00 86 1024.0
20210723131005 10 190 1.6 3.2 0.00 0.00 0.00 85 1024.0
20210723130504 10 190 1.6 3.2 0.00 0.00 0.00 85 1023.9
20210723130004 10 190 1.6 1.6 0.00 0.00 0.00 85 1023.9
20210723125505 10 190 1.6 3.2 0.00 0.00 0.00 85 1023.9
20210723125005 10 243 1.6 3.2 0.00 0.00 0.00 85 1023.9
20210723124504 10 243 1.6 4.8 0.00 0.00 0.00 85 1023.8
20210723124005 10 241 3.2 4.8 0.00 0.00 0.00 85 1023.7
20210723123504 10 271 1.6 3.2 0.00 0.00 0.00 84 1023.8
20210723123004 10 226 0.0 1.6 0.00 0.00 0.00 84 1023.8
20210723122504 10 226 0.0 1.6 0.00 0.00 0.00 84 1023.7
20210723122005 10 226 1.6 3.2 0.00 0.00 0.00 84 1023.7
20210723121504 10 226 1.6 3.2 0.00 0.00 0.00 84 1023.6
20210723121005 10 226 1.6 4.8 0.00 0.00 0.00 84 1023.6
20210723120505 10 221 1.6 3.2 0.00 0.00 0.00 84 1023.6
20210723120005 10 221 1.6 3.2 0.00 0.00 0.00 84 1023.5
20210723115504 10 221 1.6 3.2 0.00 0.00 0.00 84 1023.5
20210723115005 10 221 0.0 1.6 0.00 0.00 0.00 84 1023.4
20210723114504 10 221 0.0 1.6 0.00 0.00 0.00 83 1023.4
20210723114005 10 221 0.0 3.2 0.00 0.00 0.00 83 1023.4
20210723113503 10 221 1.6 3.2 0.00 0.00 0.00 83 1023.4
20210723113004 11 221 1.6 3.2 0.00 0.00 0.00 83 1023.4
20210723112504 11 221 0.0 3.2 0.00 0.00 0.00 82 1023.4
20210723112004 11 221 1.6 3.2 0.00 0.00 0.00 82 1023.2
20210723111505 11 221 3.2 4.8 0.00 0.00 0.00 82 1023.2
20210723111005 11 272 0.0 3.2 0.00 0.00 0.00 82 1023.3
20210723110504 11 272 0.0 3.2 0.00 0.00 0.00 82 1023.3
20210723110004 11 272 0.0 1.6 0.00 0.00 0.00 82 1023.3
20210723105504 11 272 0.0 1.6 0.00 0.00 0.00 82 1023.3
20210723105005 11 272 0.0 3.2 0.00 0.00 0.00 82 1023.3
20210723104504 11 272 0.0 3.2 0.00 0.00 0.00 82 1023.3
20210723104005 11 272 0.0 3.2 0.00 0.00 0.00 81 1023.2
20210723103504 11 249 1.6 3.2 0.00 0.00 0.00 81 1023.1
20210723103005 11 244 1.6 4.8 0.00 0.00 0.00 81 1023.1
20210723102504 11 235 1.6 4.8 0.00 0.00 0.00 81 1023.1
20210723102005 11 237 3.2 4.8 0.00 0.00 0.00 81 1023.1
20210723101504 11 263 3.2 4.8 0.00 0.00 0.00 80 1023.1
20210723101005 11 296 1.6 3.2 0.00 0.00 0.00 81 1023.0
20210723100505 11 286 1.6 3.2 0.00 0.00 0.00 80 1022.9
20210723100004 11 242 1.6 4.8 0.00 0.00 0.00 80 1022.9
20210723095504 12 242 1.6 3.2 0.00 0.00 0.00 80 1022.8
20210723095005 12 239 1.6 3.2 0.00 0.00 0.00 80 1022.9
20210723094504 12 239 0.0 1.6 0.00 0.00 0.00 79 1022.9
20210723094004 12 239 1.6 3.2 0.00 0.00 0.00 79 1022.9
20210723093504 12 239 3.2 4.8 0.00 0.00 0.00 78 1022.8
20210723093005 12 289 1.6 3.2 0.00 0.00 0.00 77 1022.8
20210723092504 12 344 1.6 1.6 0.00 0.00 0.00 77 1022.8
20210723092005 12 344 0.0 0.0 0.00 0.00 0.00 77 1022.7
20210723091504 12 344 0.0 1.6 0.00 0.00 0.00 76 1022.8
20210723091005 13 344 0.0 3.2 0.00 0.00 0.00 77 1022.7
20210723090504 12 342 1.6 3.2 0.00 0.00 0.00 77 1022.7
20210723090004 12 345 3.2 4.8 0.00 0.00 0.00 78 1022.7
20210723085504 12 352 1.6 4.8 0.00 0.00 0.00 78 1022.7
20210723085005 12 352 1.6 4.8 0.00 0.00 0.00 78 1022.6
20210723084504 12 8 1.6 4.8 0.00 0.00 0.00 78 1022.5
20210723084005 12 315 0.0 1.6 0.00 0.00 0.00 77 1022.5
20210723083504 13 315 0.0 1.6 0.00 0.00 0.00 77 1022.5
20210723083005 13 315 0.0 3.2 0.00 0.00 0.00 77 1022.3
20210723082504 13 317 1.6 3.2 0.00 0.00 0.00 76 1022.3
20210723082005 13 318 0.0 1.6 0.00 0.00 0.00 76 1022.3
20210723081504 13 318 0.0 1.6 0.00 0.00 0.00 76 1022.3
20210723081005 13 300 1.6 3.2 0.00 0.00 0.00 75 1022.3
20210723080505 13 306 0.0 3.2 0.00 0.00 0.00 75 1022.3
20210723080005 14 5 0.0 1.6 0.00 0.00 0.00 74 1022.2
20210723075504 14 5 0.0 1.6 0.00 0.00 0.00 73 1022.2
20210723075004 14 5 0.0 1.6 0.00 0.00 0.00 73 1022.2
20210723074504 14 5 1.6 3.2 0.00 0.00 0.00 72 1022.2
20210723074004 15 5 1.6 3.2 0.00 0.00 0.00 71 1022.0
20210723073504 15 5 1.6 3.2 0.00 0.00 0.00 71 1022.0
20210723073005 15 5 0.0 3.2 0.00 0.00 0.00 71 1021.9
20210723072505 15 5 1.6 4.8 0.00 0.00 0.00 70 1022.0
20210723072004 15 14 1.6 4.8 0.00 0.00 0.00 70 1021.9
20210723071504 15 64 0.0 3.2 0.00 0.00 0.00 69 1021.8
20210723071005 15 79 0.0 1.6 0.00 0.00 0.00 69 1021.8
20210723070504 16 79 3.2 9.7 0.00 0.00 0.00 69 1021.8
20210723070005 16 73 4.8 8.0 0.00 0.00 0.00 69 1021.8
20210723065504 16 107 0.0 4.8 0.00 0.00 0.00 68 1021.8
20210723065005 16 137 1.6 3.2 0.00 0.00 0.00 68 1021.8
20210723064504 16 158 1.6 4.8 0.00 0.00 0.00 68 1021.7
20210723064005 16 73 0.0 3.2 0.00 0.00 0.00 68 1021.7
20210723063504 16 46 1.6 3.2 0.00 0.00 0.00 67 1021.6
20210723063004 16 44 1.6 3.2 0.00 0.00 0.00 67 1021.6
20210723062504 16 45 1.6 4.8 0.00 0.00 0.00 68 1021.6
20210723062004 16 25 3.2 4.8 0.00 0.00 0.00 67 1021.5
20210723061504 16 355 1.6 4.8 0.00 0.00 0.00 67 1021.5
20210723061004 17 338 3.2 4.8 0.00 0.00 0.00 66 1021.5
20210723060504 17 355 3.2 4.8 0.00 0.00 0.00 66 1021.4
20210723060004 17 348 3.2 4.8 0.00 0.00 0.00 66 1021.5
20210723055505 17 340 4.8 12.9 0.00 0.00 0.00 65 1021.4
20210723055004 17 9 4.8 11.3 0.00 0.00 0.00 66 1021.4
20210723054503 17 338 3.2 4.8 0.00 0.00 0.00 65 1021.3
20210723054005 17 330 3.2 4.8 0.00 0.00 0.00 65 1021.3
20210723053504 17 343 3.2 4.8 0.00 0.00 0.00 65 1021.2
20210723053005 17 343 4.8 9.7 0.00 0.00 0.00 66 1021.1
20210723052505 17 335 4.8 8.0 0.00 0.00 0.00 65 1021.0
20210723052004 17 344 4.8 4.8 0.00 0.00 0.00 65 1021.0
20210723051504 17 346 4.8 4.8 0.00 0.00 0.00 65 1021.0
20210723051005 17 344 4.8 4.8 0.00 0.00 0.00 64 1020.9
20210723050504 17 347 4.8 4.8 0.00 0.00 0.00 64 1020.9
20210723050005 18 343 3.2 4.8 0.00 0.00 0.00 63 1020.9
20210723045504 18 348 3.2 4.8 0.00 0.00 0.00 63 1020.9
20210723045005 18 352 3.2 4.8 0.00 0.00 0.00 62 1020.9
20210723044504 18 347 3.2 4.8 0.00 0.00 0.00 62 1020.7
20210723044005 18 349 3.2 4.8 0.00 0.00 0.00 61 1020.6
20210723043504 18 338 3.2 4.8 0.00 0.00 0.00 61 1020.6
20210723043006 18 348 3.2 4.8 0.00 0.00 0.00 60 1020.4
20210723042504 19 349 3.2 4.8 0.00 0.00 0.00 60 1020.4
20210723042005 19 352 3.2 4.8 0.00 0.00 0.00 59 1020.4
20210723041504 20 5 3.2 4.8 0.00 0.00 0.00 58 1020.3
20210723041004 20 341 3.2 4.8 0.00 0.00 0.00 58 1020.2
20210723040504 20 339 1.6 4.8 0.00 0.00 0.00 57 1020.1
20210723040004 20 339 3.2 8.0 0.00 0.00 0.00 56 1020.1
20210723035505 20 340 3.2 4.8 0.00 0.00 0.00 56 1020.0
20210723035004 20 326 4.8 4.8 0.00 0.00 0.00 56 1020.0
20210723034505 20 332 3.2 4.8 0.00 0.00 0.00 55 1020.0
20210723034004 20 337 3.2 4.8 0.00 0.00 0.00 55 1020.1
20210723033504 21 339 3.2 8.0 0.00 0.00 0.00 54 1019.9
20210723033005 21 325 4.8 8.0 0.00 0.00 0.00 54 1020.0
20210723032504 21 335 4.8 8.0 0.00 0.00 0.00 53 1019.9
20210723032005 21 337 4.8 8.0 0.00 0.00 0.00 53 1019.8
20210723031504 21 338 3.2 4.8 0.00 0.00 0.00 52 1019.8
20210723031004 21 324 4.8 12.9 0.00 0.00 0.00 52 1019.8
20210723030505 21 321 4.8 11.3 0.00 0.00 0.00 51 1019.7
20210723030005 22 334 4.8 12.9 0.00 0.00 0.00 51 1019.7
20210723025504 22 345 6.4 9.7 0.00 0.00 0.00 50 1019.7
20210723025005 22 343 8.0 12.9 0.00 0.00 0.00 51 1019.7
20210723024504 22 342 4.8 12.9 0.00 0.00 0.00 51 1019.6
20210723024005 22 333 8.0 12.9 0.00 0.00 0.00 50 1019.6
20210723023504 22 311 8.0 12.9 0.00 0.00 0.00 51 1019.6
20210723023005 22 331 6.4 12.9 0.00 0.00 0.00 50 1019.6
20210723022505 23 335 8.0 19.3 0.00 0.00 0.00 50 1019.5
20210723022004 23 336 9.7 16.1 0.00 0.00 0.00 49 1019.5
20210723021504 23 339 11.3 19.3 0.00 0.00 0.00 49 1019.4
20210723021004 23 335 9.7 16.1 0.00 0.00 0.00 49 1019.4
20210723020504 23 343 6.4 19.3 0.00 0.00 0.00 49 1019.3
20210723020004 23 337 9.7 14.5 0.00 0.00 0.00 48 1019.2
20210723015504 23 336 6.4 16.1 0.00 0.00 0.00 48 1019.2
20210723015004 24 328 9.7 14.5 0.00 0.00 0.00 48 1019.1
20210723014504 24 339 8.0 16.1 0.00 0.00 0.00 48 1019.1
20210723014005 24 329 9.7 16.1 0.00 0.00 0.00 47 1019.1
20210723013504 24 336 9.7 19.3 0.00 0.00 0.00 46 1019.1
20210723013005 24 339 11.3 16.1 0.00 0.00 0.00 46 1019.1
20210723012504 25 339 6.4 16.1 0.00 0.00 0.00 45 1019.0
20210723012005 25 334 6.4 14.5 0.00 0.00 0.00 45 1019.1
20210723011504 25 334 11.3 20.9 0.00 0.00 0.00 44 1019.0
20210723011005 25 338 8.0 19.3 0.00 0.00 0.00 44 1019.1
20210723010504 25 351 11.3 20.9 0.00 0.00 0.00 43 1019.0
20210723010003 25 333 9.7 14.5 0.00 0.00 0.00 42 1018.9
20210723005504 25 349 11.3 19.3 0.00 0.00 0.00 40 1018.9
20210723005005 25 351 9.7 19.3 0.00 0.00 0.00 41 1019.0
20210723004504 25 351 8.0 16.1 0.00 0.00 0.00 40 1018.9
20210723004004 25 348 8.0 22.5 0.00 0.00 0.00 40 1018.9
20210723003504 25 352 9.7 24.1 0.00 0.00 0.00 41 1019.0
20210723003005 25 346 8.0 16.1 0.00 0.00 0.00 42 1019.0
20210723002503 25 320 6.4 12.9 0.00 0.00 0.00 40 1018.9
20210723002005 25 332 9.7 16.1 0.00 0.00 0.00 39 1018.9
20210723001504 26 334 6.4 19.3 0.00 0.00 0.00 41 1019.0
20210723001005 26 340 6.4 19.3 0.00 0.00 0.00 40 1019.0
20210723000504 26 335 9.7 22.5 0.00 0.00 0.00 40 1019.0
20210723000004 26 340 11.3 20.9 0.00 0.00 0.00 39 1019.0
20210722235505 26 333 9.7 20.9 0.00 0.00 0.00 40 1019.0
20210722235004 26 356 11.3 22.5 0.00 0.00 0.00 39 1019.0
20210722234503 26 18 9.7 20.9 0.00 0.00 0.00 39 1019.0
20210722234005 26 339 9.7 14.5 0.00 0.00 0.00 40 1019.1
20210722233504 26 309 6.4 16.1 0.00 0.00 0.00 39 1019.1
20210722233005 26 333 9.7 14.5 0.00 0.00 0.00 38 1019.2
20210722232505 26 6 9.7 19.3 0.00 0.00 0.00 40 1019.2
20210722232004 26 7 9.7 16.1 0.00 0.00 0.00 41 1019.1
20210722231504 26 329 8.0 16.1 0.00 0.00 0.00 39 1019.2
20210722231005 26 329 8.0 20.9 0.00 0.00 0.00 41 1019.2
20210722230504 26 336 8.0 16.1 0.00 0.00 0.00 41 1019.2
20210722230003 26 340 8.0 19.3 0.00 0.00 0.00 40 1019.2
20210722225504 26 355 6.4 16.1 0.00 0.00 0.00 39 1019.2
20210722225005 26 343 6.4 16.1 0.00 0.00 0.00 40 1019.3
20210722224505 26 31 8.0 20.9 0.00 0.00 0.00 38 1019.3
20210722224005 26 9 8.0 20.9 0.00 0.00 0.00 39 1019.3
20210722223505 26 359 8.0 16.1 0.00 0.00 0.00 38 1019.4
20210722223004 27 4 4.8 19.3 0.00 0.00 0.00 41 1019.5
20210722222504 26 347 6.4 19.3 0.00 0.00 0.00 41 1019.5
20210722222004 26 352 9.7 19.3 0.00 0.00 0.00 39 1019.6
20210722221504 26 355 9.7 19.3 0.00 0.00 0.00 38 1019.6
20210722221004 26 7 9.7 19.3 0.00 0.00 0.00 39 1019.7
20210722220505 26 18 4.8 16.1 0.00 0.00 0.00 37 1019.7
20210722220004 26 351 6.4 16.1 0.00 0.00 0.00 41 1019.7
20210722215504 26 351 11.3 19.3 0.00 0.00 0.00 39 1019.8
20210722215005 26 19 3.2 16.1 0.00 0.00 0.00 38 1019.8
20210722214505 25 17 9.7 19.3 0.00 0.00 0.00 39 1019.7
20210722214005 26 21 8.0 19.3 0.00 0.00 0.00 39 1019.8
20210722213504 25 359 9.7 25.7 0.00 0.00 0.00 38 1019.9
20210722213005 25 349 8.0 19.3 0.00 0.00 0.00 41 1019.8
20210722212504 25 349 8.0 16.1 0.00 0.00 0.00 40 1019.9
20210722212004 25 354 11.3 19.3 0.00 0.00 0.00 38 1019.8
20210722211504 25 22 6.4 19.3 0.00 0.00 0.00 41 1019.9
20210722211005 25 327 8.0 14.5 0.00 0.00 0.00 40 1020.0
20210722210504 25 20 8.0 14.5 0.00 0.00 0.00 42 1020.0
20210722210004 25 344 3.2 19.3 0.00 0.00 0.00 44 1020.0
20210722205504 25 22 9.7 20.9 0.00 0.00 0.00 40 1020.1
20210722205005 25 330 3.2 12.9 0.00 0.00 0.00 43 1020.1
20210722204504 24 8 8.0 19.3 0.00 0.00 0.00 41 1020.1
20210722204005 23 328 9.7 19.3 0.00 0.00 0.00 41 1020.3
20210722203504 24 345 9.7 19.3 0.00 0.00 0.00 43 1020.3
20210722203004 24 346 8.0 14.5 0.00 0.00 0.00 42 1020.3
20210722202504 24 358 6.4 14.5 0.00 0.00 0.00 41 1020.3
20210722202005 24 335 8.0 16.1 0.00 0.00 0.00 41 1020.3
20210722201504 23 344 8.0 16.1 0.00 0.00 0.00 44 1020.4
20210722201004 23 317 6.4 16.1 0.00 0.00 0.00 43 1020.4
20210722200503 23 353 9.7 22.5 0.00 0.00 0.00 42 1020.5
20210722200004 23 342 4.8 14.5 0.00 0.00 0.00 48 1020.5
20210722195504 23 342 6.4 14.5 0.00 0.00 0.00 44 1020.6
20210722195004 23 324 6.4 16.1 0.00 0.00 0.00 45 1020.6
20210722194504 22 339 8.0 14.5 0.00 0.00 0.00 45 1020.6
20210722194004 22 55 3.2 12.9 0.00 0.00 0.00 48 1020.7
20210722193503 23 329 11.3 20.9 0.00 0.00 0.00 45 1020.7
20210722193005 23 0 4.8 16.1 0.00 0.00 0.00 48 1020.7
20210722192504 23 348 8.0 16.1 0.00 0.00 0.00 45 1020.8
20210722192004 22 343 4.8 14.5 0.00 0.00 0.00 47 1020.7
20210722191504 22 350 3.2 14.5 0.00 0.00 0.00 46 1020.8
20210722191004 22 0 8.0 14.5 0.00 0.00 0.00 46 1020.8
20210722190504 22 24 4.8 8.0 0.00 0.00 0.00 48 1020.8
20210722190004 21 342 8.0 19.3 0.00 0.00 0.00 48 1020.8
20210722185504 21 322 4.8 14.5 0.00 0.00 0.00 51 1020.8
20210722185005 21 19 9.7 19.3 0.00 0.00 0.00 49 1020.9
20210722184505 21 9 8.0 12.9 0.00 0.00 0.00 52 1020.9
20210722184004 21 340 9.7 19.3 0.00 0.00 0.00 53 1020.9
20210722183504 21 17 11.3 20.9 0.00 0.00 0.00 50 1021.0
20210722183004 21 4 8.0 19.3 0.00 0.00 0.00 52 1021.0
20210722182504 20 342 8.0 19.3 0.00 0.00 0.00 51 1021.1
20210722182004 20 4 9.7 16.1 0.00 0.00 0.00 51 1021.2
20210722181504 20 1 9.7 19.3 0.00 0.00 0.00 52 1021.2
20210722181004 20 20 8.0 14.5 0.00 0.00 0.00 54 1021.2
20210722180504 20 35 4.8 14.5 0.00 0.00 0.00 56 1021.2
20210722180004 20 0 9.7 19.3 0.00 0.00 0.00 53 1021.2
20210722175504 19 341 4.8 12.9 0.00 0.00 0.00 57 1021.2
20210722175004 19 309 4.8 16.1 0.00 0.00 0.00 59 1021.3
20210722174504 18 0 4.8 16.1 0.00 0.00 0.00 56 1021.2
20210722174004 18 344 11.3 19.3 0.00 0.00 0.00 58 1021.4
20210722173504 18 343 4.8 12.9 0.00 0.00 0.00 59 1021.3
20210722173005 17 12 4.8 16.1 0.00 0.00 0.00 61 1021.3
20210722172504 17 325 4.8 11.3 0.00 0.00 0.00 62 1021.4
20210722172004 17 9 6.4 12.9 0.00 0.00 0.00 62 1021.5
20210722171504 17 356 6.4 19.3 0.00 0.00 0.00 63 1021.5
20210722171004 17 354 4.8 11.3 0.00 0.00 0.00 64 1021.5
20210722170504 17 355 8.0 16.1 0.00 0.00 0.00 64 1021.8
20210722170003 17 333 6.4 12.9 0.00 0.00 0.00 65 1021.8
20210722165504 16 357 4.8 12.9 0.00 0.00 0.00 65 1021.8
20210722165004 16 347 4.8 12.9 0.00 0.00 0.00 66 1021.8
20210722164504 16 343 4.8 11.3 0.00 0.00 0.00 67 1021.8